Kinston, NC (28502)

4:18 AM EDT on September 02, 2014 (GMT -0400)
Westbrooke II | Change Station
CLOSE
Current Station
Personal Weather Station
Location: Kinston, NC
Elevation: 43 ft
Nearby Weather Stations

Elev 43 ft 35.30 °N, 77.60 °W | Updated 17 seconds ago

Clear
Clear
76.5 °F
Feels Like 77 °F
N
0.0
Wind Variable Wind from West
Gusts 0.0 mph

Today
High -- | Low -- °F
--% Chance of Precip.
Yesterday
High -- | Low -- °F
Precip. -- in
6:43 AM 7:35 PM
Waxing Crescent, 49% visible
Pressure 30.06 in
Visibility 10.0 miles
Clouds Clear
Heat Index 77 °F
Dew Point 74 °F
Humidity 93%
Rainfall 0.00 in
Snow Depth Not available.
UV 0 out of 12
Pollen 8.70 out of 12
Air Quality Not available.
Flu Activity Not available.
METAR KISO 020755Z AUTO 21006KT 10SM CLR 25/24 A3006 RMK AO2 T02470235

More Conditions Fewer Conditions

Pressure 30.06 in
Visibility 10.0 miles
Clouds Clear
Heat Index 77 °F
Dew Point 74 °F
Humidity 93%
Rainfall 0.00 in
Snow Depth Not available.
UV 0 out of 12
Pollen 8.70 out of 12
Air Quality Not available.
Flu Activity Not available.
METAR KISO 020755Z AUTO 21006KT 10SM CLR 25/24 A3006 RMK AO2 T02470235

More Conditions Fewer Conditions

10-Day Weather Forecast

Almanac

Astronomy

Sep. 02, 2014 Rise Set
Actual Time 6:43 AM EDT 7:35 PM EDT
Civil Twilight 6:17 AM EDT 8:01 PM EDT
Nautical Twilight 5:46 AM EDT 8:32 PM EDT
Astronomical Twilight 5:15 AM EDT 9:03 PM EDT
Moon 2:10 PM EDT No Moon Set
Length of Visible Light 13h 44m
Length of Day
12h 52m
Tomorrow will be 2m 8s shorter.
Waxing Crescent, 49% of the Moon is Illuminated
Today
Waxing Crescent
Sep 2
First Quarter
Sep 8
Full
Sep 15
Last Quarter
Sep 24
New

Today's Extremes

State Highs State Lows

Community

WunderPhotos

Upload Photos

1,749,587 photos uploaded!

WunderBlogs® & News

Nearby

Snow Depth

Station Depth Elevation
No new snow has been reported.

Earthquake Activity

City Distance Mag. Time & Date
No recent earthquake activity has been reported nearby.
Minimum magnitude displayed is 2.5.

Coastal Water Temperatures

Place Temperature
No Stations Reporting

Nearby Weather Stations